Time;durP1;ratioP1;P1;durP2;ratioP2;P2;SDS_P1;SDS_P2;PMS_P1;PMS_P2;Temp;Humidity;BMP_temperature;BMP_pressure;BME280_temperature;BME280_humidity;BME280_pressure;Samples;Min_cycle;Max_cycle;Signal;HPM_P1;HPM_P2
2022/02/08 00:02:00;;;;;;;;;10.75;9.75;;;;;10.29;92.63;102943.59;4977608;28;45343;-81
2022/02/08 00:04:27;;;;;;;;;13.00;10.25;;;;;10.32;92.46;102928.31;4978082;28;45435;-80
2022/02/08 00:06:54;;;;;;;;;10.00;7.25;;;;;10.37;92.50;102933.88;4977610;28;46189;-85
2022/02/08 00:09:20;;;;;;;;;12.75;10.25;;;;;10.36;92.65;102932.97;4991058;28;45567;-86
2022/02/08 00:11:46;;;;;;;;;4.25;3.00;;;;;10.39;93.01;102927.16;4977805;28;45426;-87
2022/02/08 00:14:12;;;;;;;;;8.25;7.75;;;;;10.43;92.89;102929.19;4975789;28;45913;-88
2022/02/08 00:16:38;;;;;;;;;12.00;7.75;;;;;10.38;93.05;102927.94;4975167;28;46171;-82
2022/02/08 00:19:03;;;;;;;;;11.75;11.25;;;;;10.37;93.69;102932.19;4977730;28;45397;-77
2022/02/08 00:21:30;;;;;;;;;7.75;6.75;;;;;10.38;93.68;102930.53;4979001;28;45334;-83
2022/02/08 00:23:56;;;;;;;;;7.50;6.25;;;;;10.41;93.71;102928.19;4983001;28;45411;-82
2022/02/08 00:26:21;;;;;;;;;12.50;10.50;;;;;10.44;94.02;102927.53;4986156;28;46078;-82
2022/02/08 00:28:47;;;;;;;;;5.50;5.50;;;;;10.46;94.06;102924.25;4964613;28;45332;-84
2022/02/08 00:31:13;;;;;;;;;10.00;8.25;;;;;10.46;94.28;102929.44;4979362;28;45352;-85
2022/02/08 00:33:38;;;;;;;;;8.00;7.00;;;;;10.48;94.44;102925.28;4977305;28;45439;-82
2022/02/08 00:36:04;;;;;;;;;7.75;6.00;;;;;10.45;94.81;102919.88;4976240;28;45635;-80
2022/02/08 00:38:33;;;;;;;;;5.00;5.00;;;;;10.44;94.99;102927.53;4958509;28;45261;-79
2022/02/08 00:41:00;;;;;;;;;10.50;8.25;;;;;10.44;95.23;102927.53;4976153;28;45342;-79
2022/02/08 00:43:32;;;;;;;;;6.00;5.25;;;;;10.37;96.06;102924.44;5070541;27;45486;-79
2022/02/08 00:46:11;;;;;;;;;8.50;6.75;;;;;10.35;96.88;102919.88;5099316;27;46717;-80
2022/02/08 00:48:40;;;;;;;;;10.25;5.25;;;;;10.36;97.01;102924.28;5099193;27;45908;-78
2022/02/08 00:51:07;;;;;;;;;4.25;4.25;;;;;10.35;97.53;102925.06;5101296;27;45219;-80
2022/02/08 00:53:33;;;;;;;;;6.75;6.00;;;;;10.34;97.85;102925.84;5081945;27;45606;-82
2022/02/08 00:55:58;;;;;;;;;6.00;2.00;;;;;10.28;98.13;102920.19;5099888;27;46956;-80
2022/02/08 00:58:24;;;;;;;;;7.00;5.75;;;;;10.25;99.05;102925.09;5099043;27;45394;-80
2022/02/08 01:00:50;;;;;;;;;8.00;6.25;;;;;10.23;98.97;102930.19;5099034;27;45302;-79
2022/02/08 01:03:18;;;;;;;;;6.75;4.75;;;;;10.22;100.00;102929.25;5099233;27;45537;-80
2022/02/08 01:05:49;;;;;;;;;7.25;5.50;;;;;10.29;99.79;102934.94;5098613;27;46156;-82
2022/02/08 01:08:15;;;;;;;;;10.00;7.50;;;;;10.31;100.00;102929.09;5099088;27;45322;-79
2022/02/08 01:10:41;;;;;;;;;10.50;7.00;;;;;10.35;99.69;102922.47;5098794;27;45334;-82
2022/02/08 01:13:09;;;;;;;;;11.50;8.75;;;;;10.35;99.72;102928.56;5099330;27;45347;-83
2022/02/08 01:15:35;;;;;;;;;8.50;7.25;;;;;10.33;100.00;102937.91;5099105;27;46148;-80
2022/02/08 01:18:03;;;;;;;;;11.50;6.50;;;;;10.33;100.00;102932.72;5102884;27;45841;-78
2022/02/08 01:20:34;;;;;;;;;14.00;8.50;;;;;10.33;100.00;102929.22;5101830;27;45591;-83
2022/02/08 01:23:04;;;;;;;;;13.25;7.75;;;;;10.30;100.00;102934.16;5100609;27;45319;-82
2022/02/08 01:25:35;;;;;;;;;7.50;7.00;;;;;10.30;100.00;102932.47;5099334;27;46091;-83
2022/02/08 01:28:12;;;;;;;;;7.00;5.00;;;;;10.37;100.00;102933.88;5099458;27;45389;-82
2022/02/08 01:30:55;;;;;;;;;7.75;7.00;;;;;10.42;100.00;102940.31;5099452;27;45405;-82
2022/02/08 01:38:34;;;;;;;;;13.00;8.50;;;;;10.49;100.00;102947.81;4994922;28;45850;-78
2022/02/08 01:41:11;;;;;;;;;15.00;11.50;;;;;10.51;100.00;102950.53;5092508;27;45607;-83
2022/02/08 01:46:28;;;;;;;;;5.75;5.75;;;;;10.53;100.00;102941.19;5102832;27;45832;-83
2022/02/08 01:49:10;;;;;;;;;10.25;5.00;;;;;10.51;100.00;102943.69;5098391;27;45755;-84
2022/02/08 01:51:36;;;;;;;;;14.50;7.00;;;;;10.50;100.00;102941.88;5097210;27;45516;-83
2022/02/08 01:54:02;;;;;;;;;7.25;7.00;;;;;10.49;100.00;102937.47;5098955;27;45180;-83
2022/02/08 01:56:28;;;;;;;;;5.25;5.25;;;;;10.48;100.00;102942.50;5098271;27;45474;-83
2022/02/08 01:58:54;;;;;;;;;8.25;6.50;;;;;10.45;100.00;102934.50;5098029;27;45776;-82
2022/02/08 02:01:19;;;;;;;;;6.75;5.00;;;;;10.47;100.00;102940.72;5012097;27;45342;-82
2022/02/08 02:03:45;;;;;;;;;5.75;5.25;;;;;10.48;100.00;102940.84;4994622;27;45583;-83
2022/02/08 02:06:11;;;;;;;;;6.00;5.00;;;;;10.46;100.00;102937.22;4994536;27;46120;-83
2022/02/08 02:08:36;;;;;;;;;8.25;5.00;;;;;10.44;100.00;102938.78;4994281;27;45370;-83
2022/02/08 02:11:03;;;;;;;;;8.50;5.00;;;;;10.44;100.00;102949.13;4997373;28;45350;-83
2022/02/08 02:15:58;;;;;;;;;5.75;4.75;;;;;10.48;100.00;102947.69;4994281;28;45441;-81
2022/02/08 02:18:24;;;;;;;;;6.25;4.50;;;;;10.48;100.00;102950.28;4976867;28;45888;-82
2022/02/08 02:20:49;;;;;;;;;6.75;6.00;;;;;10.45;100.00;102942.28;4994693;28;45416;-83
2022/02/08 02:23:15;;;;;;;;;6.50;5.00;;;;;10.42;100.00;102940.31;4996747;27;45483;-82
2022/02/08 02:25:40;;;;;;;;;7.50;6.75;;;;;10.42;100.00;102940.31;5049951;27;46090;-83
2022/02/08 02:28:06;;;;;;;;;7.00;5.00;;;;;10.43;100.00;102933.47;5097770;27;45465;-83
2022/02/08 02:30:34;;;;;;;;;7.75;5.25;;;;;10.42;100.00;102937.75;5098181;27;45284;-81
2022/02/08 02:33:01;;;;;;;;;8.25;5.00;;;;;10.42;100.00;102935.16;5097528;27;45181;-82
2022/02/08 02:35:28;;;;;;;;;6.25;5.50;;;;;10.42;100.00;102940.31;5097529;27;45350;-79
2022/02/08 02:37:55;;;;;;;;;9.50;5.50;;;;;10.43;100.00;102925.72;5097477;27;45921;-80
2022/02/08 02:40:23;;;;;;;;;6.25;5.00;;;;;10.46;100.00;102919.09;5097224;27;45272;-80
2022/02/08 02:42:52;;;;;;;;;4.25;3.50;;;;;10.48;100.00;102924.38;5098795;27;45538;-78
2022/02/08 02:45:21;;;;;;;;;8.50;5.50;;;;;10.49;100.00;102919.34;5097706;27;45934;-78
2022/02/08 02:47:50;;;;;;;;;4.75;4.75;;;;;10.52;100.00;102922.19;5079393;27;45346;-77
2022/02/08 02:50:15;;;;;;;;;4.50;2.50;;;;;10.54;100.00;102924.88;5097652;27;45243;-78
2022/02/08 02:52:41;;;;;;;;;6.25;6.00;;;;;10.55;100.00;102926.69;5097358;27;45522;-79
2022/02/08 02:55:07;;;;;;;;;6.75;3.75;;;;;10.55;100.00;102921.50;5097168;27;45524;-81
2022/02/08 02:57:33;;;;;;;;;5.00;5.00;;;;;10.59;100.00;102926.13;5097320;27;45447;-81
2022/02/08 03:00:10;;;;;;;;;7.25;3.50;;;;;10.57;100.00;102921.63;5079219;27;45488;-79
2022/02/08 03:05:23;;;;;;;;;5.75;3.00;;;;;10.60;100.00;102924.47;5097136;27;45758;-80
2022/02/08 03:18:46;;;;;;;;;9.75;6.00;;;;;10.53;100.00;102930.84;4993219;28;45992;-81
2022/02/08 03:21:12;;;;;;;;;5.50;5.25;;;;;10.50;100.00;102921.16;4993730;28;45368;-81
2022/02/08 03:23:39;;;;;;;;;5.50;5.00;;;;;10.49;100.00;102932.28;4975793;28;45578;-83
2022/02/08 03:26:05;;;;;;;;;4.50;4.00;;;;;10.49;100.00;102928.78;4990540;27;46835;-82
2022/02/08 03:28:31;;;;;;;;;6.00;3.25;;;;;10.51;100.00;102924.63;5079257;27;45657;-78
2022/02/08 03:30:57;;;;;;;;;8.00;5.00;;;;;10.52;100.00;102929.03;5097090;27;45226;-77
2022/02/08 03:33:25;;;;;;;;;3.75;3.75;;;;;10.55;100.00;102934.47;5097327;27;45476;-81
2022/02/08 03:35:54;;;;;;;;;5.00;4.00;;;;;10.53;100.00;102923.06;5097474;27;45450;-79
2022/02/08 03:38:26;;;;;;;;;6.25;4.25;;;;;10.49;100.00;102940.06;5097654;27;45189;-82
2022/02/08 03:40:53;;;;;;;;;7.50;4.00;;;;;10.46;100.00;102937.22;5096902;27;45373;-82
2022/02/08 03:45:55;;;;;;;;;6.75;5.00;;;;;10.41;100.00;102945.41;5096267;27;46126;-79
2022/02/08 03:48:23;;;;;;;;;6.00;5.25;;;;;10.37;100.00;102939.97;5096365;27;45297;-81
2022/02/08 03:50:53;;;;;;;;;6.75;5.75;;;;;10.39;100.00;102940.09;5098050;27;45330;-80
2022/02/08 03:53:20;;;;;;;;;5.75;5.50;;;;;10.39;100.00;102937.53;5100488;27;45514;-78
2022/02/08 03:55:46;;;;;;;;;8.75;5.75;;;;;10.37;100.00;102939.97;5099717;27;46736;-79
2022/02/08 03:58:12;;;;;;;;;6.00;3.50;;;;;10.37;100.00;102933.88;5100382;27;45758;-80
2022/02/08 04:00:53;;;;;;;;;3.75;3.25;;;;;10.36;100.00;102929.47;5099934;27;45443;-80
2022/02/08 04:03:19;;;;;;;;;7.00;6.00;;;;;10.38;100.00;102931.41;5020679;27;45221;-80
2022/02/08 04:05:49;;;;;;;;;10.00;5.50;;;;;10.39;100.00;102934.94;4997188;28;45445;-83
2022/02/08 04:08:16;;;;;;;;;6.75;5.50;;;;;10.39;100.00;102932.34;4978732;28;45915;-83
2022/02/08 04:10:43;;;;;;;;;4.00;4.00;;;;;10.36;100.00;102935.56;4978316;28;45373;-83
2022/02/08 04:13:29;;;;;;;;;12.25;5.00;;;;;10.40;100.00;102941.00;4996150;28;45492;-82
2022/02/08 04:18:44;;;;;;;;;7.75;5.75;;;;;10.48;100.00;102935.66;4995941;28;45382;-82
2022/02/08 04:47:40;;;;;;;;;6.25;5.75;;;;;10.47;100.00;102949.38;4996179;27;45872;-83
2022/02/08 04:50:07;;;;;;;;;5.75;5.25;;;;;10.47;100.00;102935.53;4996012;28;45977;-83
2022/02/08 04:52:33;;;;;;;;;5.00;5.00;;;;;10.47;100.00;102932.97;5046716;27;45419;-83
2022/02/08 04:57:53;;;;;;;;;5.75;5.75;;;;;10.45;100.00;102930.22;5102093;27;45701;-82
2022/02/08 05:43:17;;;;;;;;;7.75;5.25;;;;;10.75;100.00;102937.72;5001787;27;45256;-82
2022/02/08 05:46:47;;;;;;;;;5.25;4.00;;;;;10.74;100.00;102931.63;4994734;28;45325;-83
2022/02/08 05:48:41;;;;;;;;;6.25;4.75;;;;;10.73;100.00;102929.84;4993539;28;45425;-81
2022/02/08 05:51:16;;;;;;;;;4.50;4.50;;;;;10.71;100.00;102926.22;4994813;28;46291;-79
2022/02/08 05:53:43;;;;;;;;;6.50;4.00;;;;;10.68;100.00;102932.06;4996082;28;45396;-77
2022/02/08 05:56:10;;;;;;;;;5.25;4.75;;;;;10.65;100.00;102926.63;4997146;28;45834;-82
2022/02/08 05:58:37;;;;;;;;;4.25;4.25;;;;;10.61;100.00;102928.88;4977154;28;45347;-81
2022/02/08 06:01:03;;;;;;;;;5.00;5.00;;;;;10.59;100.00;102931.31;4994632;28;46265;-79
2022/02/08 06:03:30;;;;;;;;;3.00;3.00;;;;;10.60;100.00;102932.22;4977210;28;45907;-81
2022/02/08 06:05:56;;;;;;;;;4.00;4.00;;;;;10.56;100.00;102923.31;4994365;28;45434;-78
2022/02/08 06:08:21;;;;;;;;;4.00;4.00;;;;;10.58;100.00;102928.59;4994819;28;45509;-79
2022/02/08 06:10:49;;;;;;;;;5.00;4.00;;;;;10.59;100.00;102914.88;4994030;27;45352;-79
2022/02/08 06:13:16;;;;;;;;;7.50;4.00;;;;;10.57;100.00;102916.44;4994392;28;45380;-79
2022/02/08 06:15:44;;;;;;;;;5.00;3.25;;;;;10.58;100.00;102916.59;4994295;27;45306;-77
2022/02/08 06:18:09;;;;;;;;;4.00;4.00;;;;;10.55;100.00;102916.34;4994378;28;45666;-78
2022/02/08 06:20:35;;;;;;;;;7.00;5.00;;;;;10.56;100.00;102917.22;4994100;28;45410;-77
2022/02/08 06:23:01;;;;;;;;;4.00;3.50;;;;;10.52;100.00;102921.25;4993990;28;45315;-81
2022/02/08 06:25:27;;;;;;;;;4.25;3.00;;;;;10.51;100.00;102922.97;4995376;28;45304;-78
2022/02/08 06:27:53;;;;;;;;;4.00;3.75;;;;;10.48;100.00;102919.19;4975848;28;45405;-77
2022/02/08 06:30:22;;;;;;;;;4.00;4.00;;;;;10.53;100.00;102915.28;4993350;28;45455;-82
2022/02/08 06:32:50;;;;;;;;;4.25;4.25;;;;;10.51;100.00;102916.84;4995682;27;45948;-82
2022/02/08 06:35:21;;;;;;;;;3.50;3.50;;;;;10.51;100.00;102922.03;4993577;28;45308;-81
2022/02/08 06:37:47;;;;;;;;;3.00;2.50;;;;;10.49;100.00;102923.59;4993462;28;45373;-82
2022/02/08 06:40:13;;;;;;;;;4.00;3.00;;;;;10.49;100.00;102929.69;4993151;28;45979;-84
2022/02/08 06:42:41;;;;;;;;;4.00;4.00;;;;;10.48;100.00;102921.78;4994457;28;45364;-82
2022/02/08 06:45:08;;;;;;;;;4.75;2.75;;;;;10.48;100.00;102927.88;4994630;28;45415;-83
2022/02/08 06:47:34;;;;;;;;;5.75;4.00;;;;;10.50;100.00;102933.19;4973376;28;45555;-78
2022/02/08 06:50:00;;;;;;;;;2.75;2.75;;;;;10.51;100.00;102938.50;4981967;27;45563;-83
2022/02/08 06:52:26;;;;;;;;;2.00;2.00;;;;;10.55;100.00;102941.31;5109382;27;45358;-82
2022/02/08 06:54:52;;;;;;;;;3.75;3.75;;;;;10.53;100.00;102939.50;5011217;27;45397;-91
2022/02/08 06:57:18;;;;;;;;;4.75;4.75;;;;;10.55;100.00;102938.72;4997237;28;45563;-83
2022/02/08 06:59:50;;;;;;;;;6.00;5.75;;;;;10.61;100.00;102941.81;5048263;27;46153;-86
2022/02/08 07:02:16;;;;;;;;;5.75;3.25;;;;;10.64;100.00;102944.63;5011130;27;45390;-83
2022/02/08 07:04:42;;;;;;;;;4.25;3.25;;;;;10.63;100.00;102945.44;4993421;28;45533;-87
2022/02/08 07:07:12;;;;;;;;;3.00;3.00;;;;;10.69;100.00;102948.50;4979743;28;45233;-84
2022/02/08 07:09:38;;;;;;;;;5.00;2.75;;;;;10.77;100.00;102951.69;4976146;28;47951;-85
2022/02/08 07:12:04;;;;;;;;;3.25;2.25;;;;;10.79;100.00;102952.72;4995084;27;45810;-83
2022/02/08 07:14:32;;;;;;;;;4.50;3.75;;;;;10.80;100.00;102951.91;5000201;28;45452;-88
2022/02/08 07:16:57;;;;;;;;;6.00;3.50;;;;;10.87;100.00;102964.59;5008173;27;45485;-85
2022/02/08 07:19:23;;;;;;;;;2.00;2.00;;;;;10.84;100.00;102953.97;4995856;28;45851;-89
2022/02/08 07:21:49;;;;;;;;;4.75;3.00;;;;;10.91;100.00;102966.63;4978608;28;45415;-84
2022/02/08 07:24:16;;;;;;;;;5.50;3.50;;;;;10.95;100.00;102975.56;4992681;28;45275;-82
2022/02/08 07:26:43;;;;;;;;;4.00;3.50;;;;;10.99;100.00;102980.19;4991730;28;45319;-80
2022/02/08 07:29:09;;;;;;;;;5.50;3.00;;;;;11.01;100.00;102981.22;4993195;28;45350;-81
2022/02/08 07:31:40;;;;;;;;;5.00;5.00;;;;;10.98;100.00;102984.47;4992897;28;45867;-84
2022/02/08 07:36:58;;;;;;;;;5.00;4.00;;;;;10.94;100.00;102977.22;4996362;27;45304;-81
2022/02/08 07:39:37;;;;;;;;;4.25;3.75;;;;;10.93;100.00;102979.72;4994008;27;45665;-84
2022/02/08 07:42:03;;;;;;;;;5.75;4.00;;;;;10.96;100.00;102985.16;5045398;27;45441;-82
2022/02/08 07:44:29;;;;;;;;;5.00;5.00;;;;;10.97;100.00;102979.16;4997491;27;45492;-81
2022/02/08 07:46:55;;;;;;;;;7.75;6.75;;;;;10.98;100.00;102976.69;4997420;27;45456;-85
2022/02/08 07:49:20;;;;;;;;;6.00;4.00;;;;;11.02;100.00;102971.72;4995760;27;45498;-85
2022/02/08 07:51:46;;;;;;;;;6.25;6.25;;;;;11.07;100.00;102975.59;5043105;27;45442;-84
2022/02/08 07:54:12;;;;;;;;;6.50;5.25;;;;;11.09;100.00;102979.22;4991099;27;45589;-83
2022/02/08 07:56:38;;;;;;;;;4.25;3.75;;;;;11.09;100.00;102974.03;4993191;28;45403;-84
2022/02/08 07:59:04;;;;;;;;;3.25;3.25;;;;;11.17;100.00;102979.81;4975094;28;48042;-85
2022/02/08 08:01:30;;;;;;;;;5.50;5.50;;;;;11.17;100.00;102967.75;4992670;28;45855;-84
2022/02/08 08:03:55;;;;;;;;;4.50;3.25;;;;;11.20;100.00;102967.06;4994052;28;45351;-84
2022/02/08 08:06:21;;;;;;;;;7.50;4.50;;;;;11.26;100.00;102972.75;4993184;28;45223;-85
2022/02/08 08:08:47;;;;;;;;;7.50;7.00;;;;;11.22;100.00;102957.72;4992573;28;45236;-87
2022/02/08 08:11:17;;;;;;;;;9.00;8.75;;;;;11.23;100.00;102959.53;4994645;27;45568;-86
2022/02/08 08:14:00;;;;;;;;;11.50;11.00;;;;;11.22;100.00;102963.84;4993635;28;45463;-85
2022/02/08 08:19:36;;;;;;;;;11.00;11.00;;;;;11.30;100.00;102961.81;5023660;27;45487;-82
2022/02/08 08:22:09;;;;;;;;;7.25;7.00;;;;;11.33;100.00;102956.88;5043152;27;45811;-82
2022/02/08 08:24:35;;;;;;;;;8.50;8.00;;;;;11.31;100.00;102958.44;4972611;28;45340;-82
2022/02/08 08:27:01;;;;;;;;;7.25;6.50;;;;;11.33;100.00;102961.16;4993149;28;45307;-82
2022/02/08 08:29:26;;;;;;;;;7.50;6.75;;;;;11.35;100.00;102955.31;4992066;28;46080;-83
2022/02/08 08:31:52;;;;;;;;;7.00;5.50;;;;;11.35;100.00;102955.31;4992245;28;45346;-82
2022/02/08 08:34:18;;;;;;;;;6.75;5.00;;;;;11.41;100.00;102960.06;4991767;28;45406;-83
2022/02/08 08:36:46;;;;;;;;;8.50;6.25;;;;;11.42;100.00;102959.25;4991951;28;45995;-82
2022/02/08 08:39:12;;;;;;;;;5.00;4.75;;;;;11.40;100.00;102968.63;4978938;28;45851;-83
2022/02/08 08:41:53;;;;;;;;;5.25;5.00;;;;;11.40;100.00;102961.72;4997817;28;45338;-84
2022/02/08 08:44:49;;;;;;;;;4.00;4.00;;;;;11.43;100.00;102969.75;4996107;28;45348;-84
2022/02/08 08:52:33;;;;;;;;;5.00;4.50;;;;;11.52;100.00;102969.56;4995612;28;45369;-82
2022/02/08 08:55:00;;;;;;;;;8.25;5.25;;;;;11.50;100.00;102968.53;4996167;28;45317;-83
2022/02/08 08:57:27;;;;;;;;;5.00;5.00;;;;;11.52;100.00;102971.22;4995927;28;45595;-83
2022/02/08 08:59:53;;;;;;;;;4.75;4.75;;;;;11.52;100.00;102973.81;4994989;27;46070;-84
2022/02/08 09:02:19;;;;;;;;;7.50;5.00;;;;;11.48;100.00;102979.59;4994316;28;45815;-83
2022/02/08 09:04:47;;;;;;;;;6.00;6.00;;;;;11.48;100.00;102971.81;4995507;28;45236;-82
2022/02/08 09:07:13;;;;;;;;;7.25;7.25;;;;;11.48;100.00;102971.81;4998678;27;45523;-82
2022/02/08 09:09:42;;;;;;;;;6.50;6.00;;;;;11.51;100.00;102972.94;4994622;27;45469;-83
2022/02/08 09:12:26;;;;;;;;;7.00;6.00;;;;;11.49;100.00;102974.50;4992508;28;45355;-81
2022/02/08 09:15:27;;;;;;;;;4.75;4.75;;;;;11.49;100.00;102971.91;4995005;28;45360;-80
2022/02/08 09:23:36;;;;;;;;;6.00;5.50;;;;;11.43;100.00;102967.16;4994653;27;45449;-85
2022/02/08 09:26:15;;;;;;;;;7.50;7.00;;;;;11.41;100.00;102965.25;4995518;28;45433;-86
2022/02/08 09:28:51;;;;;;;;;8.50;7.25;;;;;11.42;100.00;102967.03;4995385;28;45296;-84
2022/02/08 09:31:18;;;;;;;;;12.25;8.75;;;;;11.43;100.00;102961.97;4994999;28;45571;-80
2022/02/08 09:33:44;;;;;;;;;8.75;7.50;;;;;11.49;100.00;102971.00;4995787;28;46048;-80
2022/02/08 09:36:10;;;;;;;;;10.50;9.00;;;;;11.51;100.00;102965.16;4995871;27;45465;-85
2022/02/08 09:38:36;;;;;;;;;5.50;5.50;;;;;11.55;100.00;102959.41;4994921;28;45391;-84
2022/02/08 09:41:02;;;;;;;;;9.25;6.50;;;;;11.60;100.00;102960.66;4994614;28;45815;-83
2022/02/08 09:43:32;;;;;;;;;8.25;7.00;;;;;11.62;100.00;102965.94;4994709;28;45370;-84
2022/02/08 09:46:04;;;;;;;;;13.25;11.75;;;;;11.64;100.00;102968.66;4994081;27;45711;-84
2022/02/08 09:48:41;;;;;;;;;13.00;6.00;;;;;11.65;100.00;102966.19;4976789;28;45388;-85
2022/02/08 09:51:08;;;;;;;;;9.75;9.25;;;;;11.68;100.00;102965.50;4976489;28;47772;-85
2022/02/08 09:53:35;;;;;;;;;10.25;7.00;;;;;11.65;100.00;102965.28;4994775;28;45487;-81
2022/02/08 09:56:03;;;;;;;;;8.75;7.00;;;;;11.68;100.00;102969.00;4995066;27;45435;-85
2022/02/08 09:58:28;;;;;;;;;10.25;7.25;;;;;11.72;100.00;102973.63;4995698;28;45233;-86
2022/02/08 10:01:17;;;;;;;;;9.25;9.25;;;;;11.76;100.00;102969.59;4997349;28;45561;-83
2022/02/08 10:03:55;;;;;;;;;7.25;7.25;;;;;11.74;100.00;102965.97;4995402;28;45564;-85
2022/02/08 10:06:23;;;;;;;;;11.75;9.00;;;;;11.71;100.00;102964.06;4994517;27;45470;-84
2022/02/08 10:09:04;;;;;;;;;10.50;9.25;;;;;11.74;100.00;102964.28;4993740;28;45223;-83
2022/02/08 10:11:43;;;;;;;;;10.25;8.50;;;;;11.75;100.00;102968.69;4975205;28;46445;-86
2022/02/08 10:14:24;;;;;;;;;9.75;9.00;;;;;11.75;100.00;102966.06;4957364;28;45801;-87
2022/02/08 10:22:42;;;;;;;;;11.75;11.75;;;;;11.76;100.00;102972.19;4995194;28;46014;-88
2022/02/08 10:25:20;;;;;;;;;10.75;10.50;;;;;11.79;100.00;102974.09;4996465;28;45413;-85
2022/02/08 10:28:09;;;;;;;;;9.75;9.75;;;;;11.77;100.00;102969.69;4998093;28;45205;-83
2022/02/08 10:38:43;;;;;;;;;13.00;11.50;;;;;11.97;100.00;102969.38;4994219;28;45522;-82
2022/02/08 10:41:25;;;;;;;;;17.25;16.00;;;;;11.98;100.00;102969.53;4993582;28;45436;-83
2022/02/08 10:44:03;;;;;;;;;10.25;10.00;;;;;12.01;100.00;102967.16;4993428;28;46290;-85
2022/02/08 10:46:29;;;;;;;;;11.75;8.75;;;;;12.04;100.00;102966.47;4994727;28;45761;-83
2022/02/08 10:49:01;;;;;;;;;10.25;8.25;;;;;12.10;100.00;102966.03;4997390;28;45264;-82
2022/02/08 10:51:27;;;;;;;;;11.00;7.00;;;;;12.10;100.00;102966.91;5005133;27;45333;-83
2022/02/08 10:53:59;;;;;;;;;10.50;8.50;;;;;12.12;100.00;102962.75;4994615;28;45383;-82
2022/02/08 10:56:29;;;;;;;;;9.00;9.00;;;;;12.19;100.00;102978.00;4998725;28;45454;-84
2022/02/08 10:59:13;;;;;;;;;9.00;8.00;;;;;12.27;100.00;102980.25;4995411;28;45322;-83
2022/02/08 11:01:46;;;;;;;;;12.00;8.50;;;;;12.32;100.00;102978.88;4979960;28;45554;-84
2022/02/08 11:04:19;;;;;;;;;8.00;8.00;;;;;12.33;100.00;102975.47;4998454;28;46173;-85
2022/02/08 11:06:53;;;;;;;;;10.00;8.25;;;;;12.35;100.00;102971.31;4996581;28;45880;-82
2022/02/08 11:09:28;;;;;;;;;7.75;6.25;;;;;12.35;100.00;102966.09;4995182;28;45342;-82
2022/02/08 11:20:31;;;;;;;;;9.75;7.75;;;;;12.48;100.00;102961.00;4994923;28;45236;-81
2022/02/08 11:25:32;;;;;;;;;12.50;11.75;;;;;12.48;100.00;102958.41;4994127;28;46049;-83
2022/02/08 11:28:32;;;;;;;;;8.25;7.25;;;;;12.51;100.00;102947.31;4993324;28;45331;-82
2022/02/08 11:31:19;;;;;;;;;8.25;6.75;;;;;12.52;100.00;102960.44;4993570;28;45173;-81
2022/02/08 11:44:58;;;;;;;;;11.75;11.00;;;;;12.45;100.00;102933.91;4993479;28;45450;-85
2022/02/08 11:47:50;;;;;;;;;10.25;8.75;;;;;12.50;100.00;102929.94;4976194;28;47020;-85
2022/02/08 11:53:30;;;;;;;;;7.25;7.25;;;;;12.52;100.00;102920.56;4995449;28;45389;-86
2022/02/08 11:56:22;;;;;;;;;7.00;7.00;;;;;12.58;100.00;102918.38;4993217;28;45425;-86
2022/02/08 12:07:04;;;;;;;;;6.00;6.00;;;;;12.64;100.00;102913.63;4993864;28;45229;-82
2022/02/08 12:30:11;;;;;;;;;5.25;4.50;;;;;12.68;100.00;102886.16;4995359;28;45268;-84
2022/02/08 13:05:41;;;;;;;;;6.50;5.00;;;;;12.73;100.00;102837.09;4998317;28;47136;-85
2022/02/08 14:04:44;;;;;;;;;4.00;4.00;;;;;12.49;100.00;102821.59;4980092;28;45683;-88
2022/02/08 14:09:17;;;;;;;;;5.00;5.00;;;;;12.49;100.00;102808.59;4985346;28;45351;-89
2022/02/08 14:15:12;;;;;;;;;6.50;4.75;;;;;12.58;100.00;102805.75;4989408;28;45232;-88
2022/02/08 14:22:48;;;;;;;;;9.75;7.25;;;;;12.62;100.00;102797.38;4996622;28;45371;-90
2022/02/08 14:30:30;;;;;;;;;7.00;7.00;;;;;12.68;100.00;102801.31;4995643;28;45517;-88
2022/02/08 15:07:56;;;;;;;;;8.75;8.75;;;;;12.81;100.00;102784.84;5005955;28;45361;-88
2022/02/08 15:10:19;;;;;;;;;13.75;9.50;;;;;12.86;100.00;102795.53;4997211;28;45447;-89
2022/02/08 15:12:51;;;;;;;;;7.75;7.75;;;;;12.83;100.00;102797.91;4997106;28;45343;-89
2022/02/08 15:18:55;;;;;;;;;11.50;9.50;;;;;12.75;100.00;102788.72;5019586;28;45322;-88
2022/02/08 15:21:26;;;;;;;;;8.00;8.00;;;;;12.75;100.00;102799.09;4999122;28;45502;-88
2022/02/08 15:24:02;;;;;;;;;10.00;8.50;;;;;12.64;100.00;102787.97;5000755;28;45466;-86
2022/02/08 15:26:28;;;;;;;;;14.25;12.75;;;;;12.66;100.00;102801.97;4976852;28;47360;-89
2022/02/08 15:28:54;;;;;;;;;8.00;6.75;;;;;12.65;100.00;102789.78;4977817;28;45324;-88
2022/02/08 15:31:20;;;;;;;;;8.00;7.00;;;;;12.66;100.00;102800.28;4981906;28;45510;-90
2022/02/08 15:33:47;;;;;;;;;7.75;7.00;;;;;12.69;100.00;102810.00;4985855;28;45444;-89
2022/02/08 15:36:15;;;;;;;;;11.00;10.00;;;;;12.68;100.00;102800.38;4998583;28;46170;-90
2022/02/08 15:38:47;;;;;;;;;7.00;7.00;;;;;12.68;100.00;102801.31;4978804;28;45558;-89
2022/02/08 15:41:13;;;;;;;;;9.00;7.75;;;;;12.68;100.00;102816.91;4978181;28;45328;-88
2022/02/08 15:43:39;;;;;;;;;7.25;6.75;;;;;12.63;100.00;102801.78;4978783;28;45423;-87
2022/02/08 15:46:25;;;;;;;;;6.75;5.00;;;;;12.61;100.00;102796.47;4978481;28;46995;-87
2022/02/08 15:48:53;;;;;;;;;7.00;7.00;;;;;12.60;100.00;102806.75;4980266;28;45974;-90
2022/02/08 15:51:45;;;;;;;;;5.00;5.00;;;;;12.64;100.00;102798.38;4979403;28;45815;-87
2022/02/08 15:57:19;;;;;;;;;8.00;8.00;;;;;12.71;100.00;102792.81;5000815;28;45370;-81
2022/02/08 16:05:43;;;;;;;;;7.25;6.25;;;;;12.70;100.00;102778.91;4996863;28;45236;-87
2022/02/08 16:08:00;;;;;;;;;7.00;7.00;;;;;12.72;100.00;102784.22;4995593;28;45299;-87
2022/02/08 16:10:32;;;;;;;;;17.00;13.50;;;;;12.70;100.00;102789.28;4978921;28;46009;-86
2022/02/08 16:13:16;;;;;;;;;8.25;8.25;;;;;12.73;100.00;102787.69;4996626;28;45245;-85
2022/02/08 16:16:16;;;;;;;;;13.75;13.00;;;;;12.74;100.00;102784.31;4995909;28;45360;-82
2022/02/08 16:18:39;;;;;;;;;16.00;15.50;;;;;12.77;100.00;102794.91;4994954;28;46356;-83
2022/02/08 16:21:27;;;;;;;;;12.75;11.00;;;;;12.78;100.00;102795.00;4994964;27;45452;-82
2022/02/08 16:24:10;;;;;;;;;12.50;11.75;;;;;12.78;100.00;102789.81;4998438;28;45280;-83
2022/02/08 16:29:31;;;;;;;;;9.00;9.00;;;;;12.72;100.00;102802.41;4996205;28;45294;-82
2022/02/08 16:53:46;;;;;;;;;15.00;13.00;;;;;12.75;100.00;102799.09;5000047;28;45185;-85
2022/02/08 16:56:21;;;;;;;;;9.75;9.00;;;;;12.74;100.00;102794.72;4999990;27;45337;-86
2022/02/08 16:58:55;;;;;;;;;11.75;10.75;;;;;12.74;100.00;102795.59;5015784;28;45516;-88
2022/02/08 17:01:29;;;;;;;;;12.50;10.00;;;;;12.71;100.00;102795.41;5017159;28;45382;-89
2022/02/08 17:03:55;;;;;;;;;11.00;11.00;;;;;12.67;100.00;102796.91;5015431;27;45322;-86
2022/02/08 17:06:23;;;;;;;;;12.25;12.00;;;;;12.68;100.00;102800.38;5003399;27;45479;-85
2022/02/08 17:08:59;;;;;;;;;11.50;11.50;;;;;12.64;100.00;102791.47;4996781;28;45611;-81
2022/02/08 17:11:35;;;;;;;;;14.50;12.75;;;;;12.66;100.00;102796.78;4992845;28;46266;-85
2022/02/08 17:17:30;;;;;;;;;11.00;10.00;;;;;12.70;100.00;102799.69;4993968;28;45377;-82
2022/02/08 17:37:25;;;;;;;;;15.75;15.00;;;;;12.68;100.00;102796.09;4995067;28;45677;-83
2022/02/08 17:45:02;;;;;;;;;13.50;13.50;;;;;12.66;100.00;102795.09;5000085;28;45366;-82
2022/02/08 17:46:53;;;;;;;;;16.25;14.75;;;;;12.68;100.00;102795.19;4996954;28;45394;-83
2022/02/08 17:49:19;;;;;;;;;17.75;14.75;;;;;12.68;100.00;102800.38;5000916;27;45660;-80
2022/02/08 17:51:46;;;;;;;;;12.00;11.50;;;;;12.68;100.00;102798.72;5001986;27;45559;-89
2022/02/08 17:54:13;;;;;;;;;17.00;16.75;;;;;12.70;100.00;102811.78;5023275;27;45559;-84
2022/02/08 17:56:38;;;;;;;;;15.75;15.75;;;;;12.66;100.00;102794.19;4997303;27;45485;-83